Dn Vatan — TCZN6 — position and weather

sailwx.info

Track history (hours):
 
Tides and Currents Weather Stations Pressure Air Temp Water Temp Dewpoint Dewpoint Depression Visibility Wind Speed Wind Dir Waves Ship Positions

Dn Vatan

Last reported at 2017-Jan-14 12:26 UTC. Time now 2017-Jan-19 23:40 UTC.
Position N 31°06' E 122°32'.

Length 196 m; draft 6.6 m.

Type: Cargo ship. MMSI: 270991365.

Date/timePositionNaut miles runAvg speedWind from/ knotsBaromVisibWave heightAir tempDewpointWater temp
2017-Jan-14 12:26N 31°06' E 122°32'8 8.9
2017-Jan-14 11:33N 31°06' E 122°22'1111.2
2017-Jan-14 10:34N 31°11' E 122°11'1414.4
2017-Jan-14 09:33N 31°16' E 121°55'1312.8
2017-Jan-14 08:33N 31°20' E 121°41'8 8.3
2017-Jan-14 07:34N 31°24' E 121°32'9 8.5
2017-Jan-14 06:34N 31°30' E 121°25'10 9.9
2017-Jan-14 05:34N 31°37' E 121°16'9 9.2
2017-Jan-14 04:34N 31°42' E 121°08'1111.3
2017-Jan-14 03:34N 31°47' E 120°56'  
2017-Jan-10 11:33N 32°02' E 120°27'7 7.0
2017-Jan-10 10:33N 32°00' E 120°35'27 8.9
2017-Jan-10 07:33N 31°47' E 121°01'1111.4
2017-Jan-10 06:33N 31°40' E 121°12'1212.2
2017-Jan-10 05:33N 31°32' E 121°23'1010.3
2017-Jan-10 04:33N 31°25' E 121°32'9 9.4
2017-Jan-10 03:33N 31°20' E 121°41'9 8.6
2017-Jan-10 02:33N 31°17' E 121°50'1110.5
2017-Jan-10 01:33N 31°14' E 122°03'1110.6
2017-Jan-10 00:33N 31°09' E 122°13'1111.0
2017-Jan-09 23:33N 31°07' E 122°26'  
2017-Jan-04 17:10N 30°58' E 122°52'813.2
2017-Jan-04 16:32N 30°49' E 122°55'  
Track history (hours):
 
Tides and Currents Weather Stations Pressure Air Temp Water Temp Dewpoint Dewpoint Depression Visibility Wind Speed Wind Dir Waves Ship Positions

Dn Vatan

Last reported at 2017-Jan-14 12:26 UTC. Time now 2017-Jan-19 23:40 UTC.
Position N 31°06' E 122°32'.

Length 196 m; draft 6.6 m.

Type: Cargo ship. MMSI: 270991365.

Date/timePositionNaut miles runAvg speedWind from/ knotsBaromVisibWave heightAir tempDewpointWater temp
2017-Jan-14 12:26N 31°06' E 122°32'8 8.9
2017-Jan-14 11:33N 31°06' E 122°22'1111.2
2017-Jan-14 10:34N 31°11' E 122°11'1414.4
2017-Jan-14 09:33N 31°16' E 121°55'1312.8
2017-Jan-14 08:33N 31°20' E 121°41'8 8.3
2017-Jan-14 07:34N 31°24' E 121°32'9 8.5
2017-Jan-14 06:34N 31°30' E 121°25'10 9.9
2017-Jan-14 05:34N 31°37' E 121°16'9 9.2
2017-Jan-14 04:34N 31°42' E 121°08'1111.3
2017-Jan-14 03:34N 31°47' E 120°56'  
2017-Jan-10 11:33N 32°02' E 120°27'7 7.0
2017-Jan-10 10:33N 32°00' E 120°35'27 8.9
2017-Jan-10 07:33N 31°47' E 121°01'1111.4
2017-Jan-10 06:33N 31°40' E 121°12'1212.2
2017-Jan-10 05:33N 31°32' E 121°23'1010.3
2017-Jan-10 04:33N 31°25' E 121°32'9 9.4
2017-Jan-10 03:33N 31°20' E 121°41'9 8.6
2017-Jan-10 02:33N 31°17' E 121°50'1110.5
2017-Jan-10 01:33N 31°14' E 122°03'1110.6
2017-Jan-10 00:33N 31°09' E 122°13'1111.0
2017-Jan-09 23:33N 31°07' E 122°26'  
2017-Jan-04 17:10N 30°58' E 122°52'813.2
2017-Jan-04 16:32N 30°49' E 122°55'  

Dump ship's entire track history